createdAt,value
2023-03-30T00:01:03.748Z,62.46
2023-03-30T00:03:33.275Z,62.32
2023-03-30T00:06:05.328Z,62.36
2023-03-30T00:08:33.321Z,62.53
2023-03-30T00:11:02.209Z,62.09
2023-03-30T00:13:30.165Z,62.18
2023-03-30T00:15:57.100Z,62.18
2023-03-30T00:18:24.818Z,62.17
2023-03-30T00:20:53.194Z,62.34
2023-03-30T00:23:20.572Z,62.31
2023-03-30T00:25:47.472Z,62.61
2023-03-30T00:28:14.388Z,63.02
2023-03-30T00:30:41.734Z,62.99
2023-03-30T00:33:08.857Z,63.10
2023-03-30T00:35:36.264Z,62.96
2023-03-30T00:38:05.754Z,63.22
2023-03-30T00:40:34.757Z,62.94
2023-03-30T00:43:04.402Z,62.86
2023-03-30T00:45:35.711Z,62.65
2023-03-30T00:48:07.888Z,62.48
2023-03-30T00:50:41.806Z,62.26
2023-03-30T00:53:16.251Z,62.34
2023-03-30T00:55:47.329Z,62.42
2023-03-30T00:58:17.817Z,62.48
2023-03-30T01:00:47.226Z,62.04
2023-03-30T01:03:22.701Z,62.33
2023-03-30T01:05:52.016Z,62.34
2023-03-30T01:08:23.907Z,62.30
2023-03-30T01:10:52.563Z,62.83
2023-03-30T01:13:20.668Z,62.40
2023-03-30T01:16:08.887Z,62.28
2023-03-30T01:18:54.701Z,62.39
2023-03-30T01:22:01.759Z,62.36
2023-03-30T01:25:20.879Z,62.40
2023-03-30T01:28:18.490Z,62.55
2023-03-30T01:31:14.860Z,62.53
2023-03-30T01:34:27.953Z,62.85
2023-03-30T01:37:32.345Z,63.07
2023-03-30T01:40:09.961Z,63.21
2023-03-30T01:42:47.565Z,62.97
2023-03-30T01:45:27.558Z,63.24
2023-03-30T01:48:02.390Z,62.90
2023-03-30T01:50:37.066Z,62.53
2023-03-30T01:53:14.935Z,62.68
2023-03-30T01:55:52.814Z,62.74
2023-03-30T01:58:27.797Z,62.49
2023-03-30T02:00:57.519Z,62.65
2023-03-30T02:03:28.878Z,62.56
2023-03-30T02:06:03.948Z,62.42
2023-03-30T02:08:34.544Z,62.26
2023-03-30T02:11:03.557Z,62.40
2023-03-30T02:13:32.926Z,62.30
2023-03-30T02:16:07.185Z,62.39
2023-03-30T02:18:35.356Z,62.18
2023-03-30T02:21:03.493Z,62.03
2023-03-30T02:23:37.086Z,62.12
2023-03-30T02:26:07.956Z,61.86
2023-03-30T02:28:34.896Z,61.84
2023-03-30T02:31:04.454Z,61.76
2023-03-30T02:33:48.410Z,61.93
2023-03-30T02:36:39.468Z,61.87
2023-03-30T02:39:24.180Z,62.15
2023-03-30T02:42:28.088Z,62.07
2023-03-30T02:45:19.592Z,61.79
2023-03-30T02:48:03.372Z,61.93
2023-03-30T02:50:44.178Z,61.77
2023-03-30T02:53:24.706Z,62.11
2023-03-30T02:56:07.925Z,61.80
2023-03-30T02:58:45.389Z,62.01
2023-03-30T03:01:19.208Z,61.92
2023-03-30T03:03:49.362Z,62.09
2023-03-30T03:06:18.345Z,62.02
2023-03-30T03:08:48.111Z,62.26
2023-03-30T03:11:15.656Z,62.12
2023-03-30T03:13:44.560Z,62.05
2023-03-30T03:16:13.994Z,62.31
2023-03-30T03:18:44.577Z,62.47
2023-03-30T03:21:13.861Z,62.35
2023-03-30T03:23:41.140Z,62.18
2023-03-30T03:26:09.586Z,61.89
2023-03-30T03:28:36.535Z,61.94
2023-03-30T03:31:06.468Z,61.99
2023-03-30T03:33:33.910Z,61.91
2023-03-30T03:36:01.103Z,61.66
2023-03-30T03:38:28.959Z,61.42
2023-03-30T03:40:59.047Z,61.44
2023-03-30T03:43:26.450Z,61.37
2023-03-30T03:45:53.723Z,61.07
2023-03-30T03:48:24.733Z,61.04
2023-03-30T03:50:53.396Z,61.08
2023-03-30T03:53:21.508Z,61.10
2023-03-30T03:55:48.474Z,61.05
2023-03-30T03:58:16.605Z,60.89
2023-03-30T04:00:43.979Z,61.07
2023-03-30T04:03:12.222Z,60.83
2023-03-30T04:05:41.808Z,60.88
2023-03-30T04:08:10.703Z,61.03
2023-03-30T04:10:38.849Z,60.76
2023-03-30T04:13:06.378Z,60.68
2023-03-30T04:15:34.042Z,60.79
2023-03-30T04:18:01.671Z,60.59
2023-03-30T04:20:29.953Z,60.78
2023-03-30T04:23:01.590Z,60.48
2023-03-30T04:25:29.267Z,60.24
2023-03-30T04:27:57.091Z,60.04
2023-03-30T04:30:24.546Z,59.88
2023-03-30T04:33:02.612Z,59.71
2023-03-30T04:35:31.283Z,59.62
2023-03-30T04:38:01.882Z,59.49
2023-03-30T04:40:29.331Z,59.33
2023-03-30T04:43:02.016Z,59.32
2023-03-30T04:45:29.561Z,59.57
2023-03-30T04:47:56.897Z,59.23
2023-03-30T04:50:23.842Z,59.28
2023-03-30T04:52:50.960Z,58.73
2023-03-30T04:55:19.741Z,58.99
2023-03-30T04:57:46.751Z,58.63
2023-03-30T05:00:15.089Z,58.62
2023-03-30T05:02:42.129Z,58.29
2023-03-30T05:05:09.553Z,58.16
2023-03-30T05:07:36.478Z,58.02
2023-03-30T05:10:03.871Z,57.44
2023-03-30T05:12:32.146Z,57.70
2023-03-30T05:14:59.124Z,57.33
2023-03-30T05:17:26.390Z,57.55
2023-03-30T05:19:54.557Z,57.23
2023-03-30T05:22:21.759Z,57.08
2023-03-30T05:24:48.638Z,57.05
2023-03-30T05:27:15.732Z,56.90
2023-03-30T05:29:44.344Z,56.37
2023-03-30T05:32:11.498Z,56.36
2023-03-30T05:34:38.389Z,55.93
2023-03-30T05:37:05.313Z,55.72
2023-03-30T05:39:32.569Z,55.70
2023-03-30T05:41:59.558Z,55.51
2023-03-30T05:44:26.468Z,55.49
2023-03-30T05:46:54.681Z,55.47
2023-03-30T05:49:21.563Z,55.16
2023-03-30T05:51:48.507Z,54.96
2023-03-30T05:54:15.520Z,54.87
2023-03-30T05:56:42.718Z,55.09
2023-03-30T05:59:10.651Z,54.73
2023-03-30T06:01:38.335Z,54.43
2023-03-30T06:04:07.836Z,54.33
2023-03-30T06:06:34.781Z,54.23
2023-03-30T06:09:02.812Z,54.37
2023-03-30T06:11:29.939Z,53.96
2023-03-30T06:13:56.891Z,53.93
2023-03-30T06:16:24.314Z,53.75
2023-03-30T06:18:52.083Z,53.84
2023-03-30T06:21:20.703Z,53.83
2023-03-30T06:23:48.976Z,53.54
2023-03-30T06:26:15.884Z,53.69
2023-03-30T06:28:43.419Z,53.58
2023-03-30T06:31:12.023Z,53.36
2023-03-30T06:33:41.533Z,53.18
2023-03-30T06:36:12.058Z,52.79
2023-03-30T06:38:41.175Z,52.82
2023-03-30T06:41:10.051Z,52.64
2023-03-30T06:43:37.622Z,52.63
2023-03-30T06:46:05.964Z,52.43
2023-03-30T06:48:33.056Z,52.38
2023-03-30T06:51:00.136Z,52.21
2023-03-30T06:53:28.202Z,51.86
2023-03-30T06:55:58.623Z,51.89
2023-03-30T06:58:27.501Z,51.28
2023-03-30T07:00:55.154Z,51.18
2023-03-30T07:03:22.690Z,50.57
2023-03-30T07:05:50.799Z,50.60
2023-03-30T07:08:18.710Z,50.39
2023-03-30T07:10:47.772Z,50.32
2023-03-30T07:13:17.527Z,50.40
2023-03-30T07:15:46.593Z,50.32
2023-03-30T07:18:14.789Z,50.07
2023-03-30T07:20:41.781Z,50.38
2023-03-30T07:23:10.419Z,50.00
2023-03-30T07:25:37.372Z,50.03
2023-03-30T07:28:06.246Z,50.24
2023-03-30T07:30:35.764Z,49.92
2023-03-30T07:33:03.589Z,49.90
2023-03-30T07:35:30.789Z,50.13
2023-03-30T07:38:03.465Z,50.33
2023-03-30T07:40:31.192Z,50.10
2023-03-30T07:42:58.914Z,50.47
2023-03-30T07:45:27.262Z,50.25
2023-03-30T07:47:55.875Z,50.45
2023-03-30T07:50:25.355Z,49.46
2023-03-30T07:52:52.720Z,49.21
2023-03-30T07:55:19.676Z,47.82
2023-03-30T07:57:50.027Z,46.60
2023-03-30T08:00:18.804Z,43.53
2023-03-30T08:02:45.950Z,42.85
2023-03-30T08:05:15.531Z,42.48
2023-03-30T08:07:43.059Z,42.32
2023-03-30T08:10:11.417Z,41.79
2023-03-30T08:12:38.342Z,41.85
2023-03-30T08:15:06.803Z,41.33
2023-03-30T08:17:33.909Z,41.03
2023-03-30T08:20:01.719Z,40.14
2023-03-30T08:22:30.289Z,40.41
2023-03-30T08:24:57.390Z,40.93
2023-03-30T08:27:24.425Z,41.58
2023-03-30T08:29:54.249Z,41.52
2023-03-30T08:32:21.366Z,42.27
2023-03-30T08:34:48.349Z,42.43
2023-03-30T08:37:15.338Z,42.87
2023-03-30T08:39:43.630Z,43.00
2023-03-30T08:42:39.379Z,43.40
2023-03-30T08:45:11.830Z,43.33
2023-03-30T08:47:43.994Z,43.16
2023-03-30T08:50:17.086Z,43.18
2023-03-30T08:52:44.240Z,43.44
2023-03-30T08:55:24.319Z,43.35
2023-03-30T08:57:57.441Z,43.41
2023-03-30T09:00:37.675Z,43.59
2023-03-30T09:03:17.630Z,42.85
2023-03-30T09:05:55.002Z,40.74
2023-03-30T09:08:29.110Z,38.79
2023-03-30T09:11:01.713Z,35.65
2023-03-30T09:13:33.706Z,34.84
2023-03-30T09:16:14.820Z,33.56
2023-03-30T09:18:44.968Z,32.57
2023-03-30T09:21:13.964Z,31.88
2023-03-30T09:23:41.332Z,30.38
2023-03-30T09:26:23.701Z,30.44
2023-03-30T09:29:01.017Z,28.52
2023-03-30T09:31:39.875Z,28.55
2023-03-30T09:34:25.593Z,27.06
2023-03-30T09:36:58.008Z,26.38
2023-03-30T09:39:27.562Z,25.61
2023-03-30T09:42:18.583Z,25.60
2023-03-30T09:44:51.763Z,25.58
2023-03-30T09:47:35.421Z,25.90
2023-03-30T09:50:07.883Z,25.33
2023-03-30T09:52:39.982Z,25.66
2023-03-30T09:55:30.251Z,26.09
2023-03-30T09:58:14.009Z,27.11
2023-03-30T10:00:41.136Z,28.13
2023-03-30T10:03:19.728Z,29.13
2023-03-30T10:06:03.806Z,29.41
2023-03-30T10:08:39.491Z,28.61
2023-03-30T10:11:10.563Z,28.25
2023-03-30T10:13:43.247Z,27.69
2023-03-30T10:16:24.664Z,26.60
2023-03-30T10:18:55.566Z,25.50
2023-03-30T10:21:27.225Z,26.43
2023-03-30T10:24:04.549Z,26.32
2023-03-30T10:26:32.008Z,26.97
2023-03-30T10:29:05.723Z,27.31
2023-03-30T10:31:36.961Z,26.60
2023-03-30T10:34:14.794Z,26.91
2023-03-30T10:36:42.149Z,28.73
2023-03-30T10:39:17.763Z,29.64
2023-03-30T10:41:48.732Z,30.70
2023-03-30T10:44:23.649Z,33.71
2023-03-30T10:47:03.265Z,35.51
2023-03-30T10:49:47.183Z,37.73
2023-03-30T10:52:26.425Z,38.70
2023-03-30T10:55:06.467Z,39.39
2023-03-30T10:57:50.876Z,40.26
2023-03-30T11:00:36.480Z,40.75
2023-03-30T11:03:12.750Z,40.58
2023-03-30T11:05:45.983Z,40.70
2023-03-30T11:08:21.009Z,40.51
2023-03-30T11:10:52.969Z,39.92
2023-03-30T11:13:26.074Z,38.20
2023-03-30T11:15:59.940Z,37.47
2023-03-30T11:18:36.289Z,36.88
2023-03-30T11:21:10.933Z,36.25
2023-03-30T11:23:49.302Z,35.20
2023-03-30T11:26:24.585Z,34.60
2023-03-30T11:29:02.737Z,33.68
2023-03-30T11:32:05.563Z,32.48
2023-03-30T11:34:48.165Z,33.22
2023-03-30T11:37:27.263Z,33.25
2023-03-30T11:40:08.363Z,33.89
2023-03-30T11:42:37.510Z,34.54
2023-03-30T11:45:18.482Z,35.29
2023-03-30T11:48:20.036Z,36.00
2023-03-30T11:51:09.064Z,36.23
2023-03-30T11:53:51.971Z,36.58
2023-03-30T11:56:34.582Z,37.03
2023-03-30T11:59:12.410Z,37.24
2023-03-30T12:02:07.020Z,37.37
2023-03-30T12:04:46.559Z,37.29
2023-03-30T12:07:30.560Z,37.61
2023-03-30T12:10:16.482Z,37.69
2023-03-30T12:12:47.154Z,37.96
2023-03-30T12:15:34.719Z,38.40
2023-03-30T12:18:19.501Z,37.68
2023-03-30T12:20:55.562Z,37.16
2023-03-30T12:23:40.639Z,36.36
2023-03-30T12:26:26.893Z,35.58
2023-03-30T12:32:03.611Z,35.26
2023-03-30T12:34:34.403Z,35.91
2023-03-30T12:37:09.921Z,37.16
2023-03-30T12:39:49.240Z,37.42
2023-03-30T12:42:26.961Z,38.10
2023-03-30T12:45:23.784Z,38.02
2023-03-30T12:48:16.788Z,37.98
2023-03-30T12:51:04.516Z,37.74
2023-03-30T12:54:03.370Z,36.37
2023-03-30T12:56:38.008Z,35.65
2023-03-30T12:59:54.773Z,34.68
2023-03-30T13:02:55.114Z,33.03
2023-03-30T13:05:30.340Z,32.64
2023-03-30T13:08:04.482Z,30.13
2023-03-30T13:10:40.072Z,30.38
2023-03-30T13:13:21.961Z,29.92
2023-03-30T13:15:52.872Z,30.85
2023-03-30T13:18:41.387Z,30.23
2023-03-30T13:21:22.865Z,30.34
2023-03-30T13:24:28.359Z,30.91
2023-03-30T13:27:25.667Z,31.04
2023-03-30T13:29:56.749Z,31.08
2023-03-30T13:33:01.637Z,31.95
2023-03-30T13:35:38.915Z,32.16
2023-03-30T13:38:45.756Z,32.18
2023-03-30T13:41:38.274Z,32.91
2023-03-30T13:44:27.760Z,33.28
2023-03-30T13:47:12.384Z,33.19
2023-03-30T13:49:55.158Z,32.62
2023-03-30T13:52:30.629Z,30.48
2023-03-30T13:54:58.543Z,30.09
2023-03-30T13:57:33.804Z,29.61
2023-03-30T14:00:21.245Z,28.88
2023-03-30T14:02:49.349Z,28.31
2023-03-30T14:05:21.682Z,28.47
2023-03-30T14:07:48.997Z,28.73
2023-03-30T14:10:20.387Z,29.85
2023-03-30T14:12:53.704Z,30.09
2023-03-30T14:15:33.919Z,30.74
2023-03-30T14:18:04.659Z,31.22
2023-03-30T14:20:48.319Z,32.24
2023-03-30T14:23:22.639Z,33.73
2023-03-30T14:25:54.344Z,34.55
2023-03-30T14:28:22.354Z,34.84
2023-03-30T14:30:53.711Z,35.24
2023-03-30T14:33:24.094Z,36.17
2023-03-30T14:35:56.401Z,36.85
2023-03-30T14:38:27.300Z,36.79
2023-03-30T14:40:55.713Z,37.46
2023-03-30T14:43:27.023Z,37.44
2023-03-30T14:45:59.574Z,37.71
2023-03-30T14:48:32.789Z,37.44
2023-03-30T14:51:02.625Z,37.86
2023-03-30T14:53:30.961Z,38.43
2023-03-30T14:56:01.341Z,38.64
2023-03-30T14:58:32.554Z,38.64
2023-03-30T15:01:09.627Z,38.91
2023-03-30T15:03:38.336Z,40.11
2023-03-30T15:06:07.897Z,39.54
2023-03-30T15:08:39.310Z,38.90
2023-03-30T15:11:12.675Z,38.48
2023-03-30T15:13:46.570Z,37.23
2023-03-30T15:16:20.858Z,37.34
2023-03-30T15:18:49.850Z,37.08
2023-03-30T15:21:19.501Z,36.57
2023-03-30T15:23:49.949Z,35.27
2023-03-30T15:26:18.456Z,34.48
2023-03-30T15:28:51.098Z,34.37
2023-03-30T15:31:20.931Z,34.39
2023-03-30T15:33:53.198Z,34.46
2023-03-30T15:36:23.458Z,34.56
2023-03-30T15:38:53.199Z,35.39
2023-03-30T15:41:24.609Z,36.06
2023-03-30T15:43:58.147Z,35.89
2023-03-30T15:46:30.016Z,36.12
2023-03-30T15:48:58.308Z,36.12
2023-03-30T15:51:32.987Z,36.04
2023-03-30T15:54:12.924Z,36.40
2023-03-30T15:56:48.202Z,36.72
2023-03-30T15:59:19.566Z,36.97
2023-03-30T16:01:54.778Z,37.17
2023-03-30T16:04:24.411Z,37.15
2023-03-30T16:06:52.684Z,37.79
2023-03-30T16:09:19.773Z,38.25
2023-03-30T16:11:47.190Z,37.80
2023-03-30T16:14:20.059Z,38.44
2023-03-30T16:16:48.945Z,38.50
2023-03-30T16:19:20.358Z,39.02
2023-03-30T16:21:47.548Z,39.42
2023-03-30T16:24:14.798Z,39.21
2023-03-30T16:26:42.233Z,39.19
2023-03-30T16:29:19.980Z,39.93
2023-03-30T16:31:47.088Z,40.16
2023-03-30T16:34:15.590Z,40.14
2023-03-30T16:36:42.722Z,40.06
2023-03-30T16:39:17.885Z,40.59
2023-03-30T16:41:45.584Z,41.65
2023-03-30T16:44:12.551Z,41.61
2023-03-30T16:46:42.035Z,41.42
2023-03-30T16:49:14.098Z,42.07
2023-03-30T16:51:43.561Z,42.20
2023-03-30T16:54:19.783Z,41.80
2023-03-30T16:56:54.640Z,41.80
2023-03-30T16:59:24.234Z,41.78
2023-03-30T17:01:51.794Z,42.30
2023-03-30T17:04:19.514Z,42.07
2023-03-30T17:06:49.096Z,42.30
2023-03-30T17:09:19.232Z,42.86
2023-03-30T17:11:48.488Z,42.99
2023-03-30T17:14:16.562Z,42.93
2023-03-30T17:16:44.002Z,43.58
2023-03-30T17:19:13.650Z,43.64
2023-03-30T17:21:43.350Z,44.16
2023-03-30T17:24:12.563Z,43.77
2023-03-30T17:26:40.254Z,44.39
2023-03-30T17:29:07.292Z,44.32
2023-03-30T17:31:34.442Z,44.67
2023-03-30T17:34:01.516Z,45.02
2023-03-30T17:36:30.942Z,45.31
2023-03-30T17:38:59.477Z,45.21
2023-03-30T17:41:27.944Z,45.56
2023-03-30T17:43:55.080Z,45.70
2023-03-30T17:46:22.138Z,45.59
2023-03-30T17:48:51.438Z,45.90
2023-03-30T17:51:18.702Z,46.22
2023-03-30T17:53:46.035Z,46.00
2023-03-30T17:56:13.577Z,45.97
2023-03-30T17:58:41.915Z,46.41
2023-03-30T18:01:12.184Z,46.31
2023-03-30T18:03:39.731Z,46.68
2023-03-30T18:06:07.966Z,47.05
2023-03-30T18:08:35.993Z,47.31
2023-03-30T18:11:04.630Z,47.27
2023-03-30T18:13:32.215Z,47.54
2023-03-30T18:16:02.887Z,47.64
2023-03-30T18:18:31.396Z,47.64
2023-03-30T18:21:02.655Z,47.42
2023-03-30T18:23:31.487Z,47.69
2023-03-30T18:25:58.472Z,47.81
2023-03-30T18:28:27.430Z,47.99
2023-03-30T18:31:00.672Z,47.73
2023-03-30T18:33:29.222Z,47.96
2023-03-30T18:35:56.931Z,48.73
2023-03-30T18:38:25.387Z,48.71
2023-03-30T18:40:57.383Z,48.53
2023-03-30T18:43:26.163Z,48.29
2023-03-30T18:45:54.332Z,48.46
2023-03-30T18:48:21.791Z,48.21
2023-03-30T18:50:52.169Z,48.24
2023-03-30T18:53:21.569Z,48.59
2023-03-30T18:55:51.377Z,48.45
2023-03-30T18:58:21.261Z,48.58
2023-03-30T19:00:49.740Z,48.95
2023-03-30T19:03:17.664Z,48.61
2023-03-30T19:05:45.948Z,48.89
2023-03-30T19:08:17.807Z,48.61
2023-03-30T19:10:49.261Z,48.68
2023-03-30T19:13:18.566Z,48.86
2023-03-30T19:15:47.590Z,48.76
2023-03-30T19:18:15.661Z,48.82
2023-03-30T19:20:42.753Z,48.81
2023-03-30T19:23:13.228Z,48.94
2023-03-30T19:25:42.711Z,49.18
2023-03-30T19:28:10.203Z,49.33
2023-03-30T19:30:39.624Z,49.13
2023-03-30T19:33:10.993Z,49.01
2023-03-30T19:35:40.808Z,49.09
2023-03-30T19:38:08.097Z,49.39
2023-03-30T19:40:36.506Z,49.34
2023-03-30T19:43:05.179Z,49.32
2023-03-30T19:45:32.619Z,49.49
2023-03-30T19:47:59.901Z,49.44
2023-03-30T19:50:29.491Z,49.51
2023-03-30T19:52:57.965Z,49.87
2023-03-30T19:55:25.668Z,50.68
2023-03-30T19:57:52.710Z,50.88
2023-03-30T20:00:21.400Z,51.21
2023-03-30T20:02:51.472Z,51.92
2023-03-30T20:05:21.720Z,52.23
2023-03-30T20:07:50.459Z,52.47
2023-03-30T20:10:21.788Z,52.45
2023-03-30T20:12:50.321Z,52.71
2023-03-30T20:15:18.495Z,53.10
2023-03-30T20:17:46.951Z,53.10
2023-03-30T20:20:16.957Z,53.24
2023-03-30T20:22:44.828Z,53.25
2023-03-30T20:25:14.228Z,54.09
2023-03-30T20:27:41.798Z,54.20
2023-03-30T20:30:11.557Z,54.63
2023-03-30T20:32:39.657Z,54.80
2023-03-30T20:35:09.253Z,55.03
2023-03-30T20:37:36.116Z,55.60
2023-03-30T20:40:09.618Z,55.32
2023-03-30T20:42:39.753Z,55.38
2023-03-30T20:45:08.781Z,55.20
2023-03-30T20:47:35.714Z,55.19
2023-03-30T20:50:06.283Z,54.88
2023-03-30T20:52:34.710Z,54.72
2023-03-30T20:55:01.730Z,54.66
2023-03-30T20:57:28.650Z,54.36
2023-03-30T20:59:55.852Z,54.27
2023-03-30T21:02:22.750Z,54.31
2023-03-30T21:04:50.279Z,54.21
2023-03-30T21:07:17.827Z,53.98
2023-03-30T21:09:47.143Z,53.86
2023-03-30T21:12:14.063Z,53.76
2023-03-30T21:14:41.120Z,53.67
2023-03-30T21:17:08.413Z,53.62
2023-03-30T21:19:36.649Z,53.83
2023-03-30T21:22:03.722Z,53.69
2023-03-30T21:24:31.082Z,53.53
2023-03-30T21:26:59.476Z,53.49
2023-03-30T21:29:26.365Z,53.86
2023-03-30T21:31:53.278Z,53.74
2023-03-30T21:34:22.062Z,53.89
2023-03-30T21:36:49.138Z,53.77
2023-03-30T21:39:16.213Z,53.25
2023-03-30T21:41:43.600Z,53.24
2023-03-30T21:44:11.914Z,53.40
2023-03-30T21:46:38.910Z,53.01
2023-03-30T21:49:05.819Z,53.01
2023-03-30T21:51:32.761Z,52.75
2023-03-30T21:53:59.719Z,52.71
2023-03-30T21:56:29.577Z,52.75
2023-03-30T21:58:56.956Z,52.43
2023-03-30T22:01:25.600Z,52.52
2023-03-30T22:03:53.549Z,52.32
2023-03-30T22:06:22.067Z,52.05
2023-03-30T22:08:49.517Z,51.99
2023-03-30T22:11:19.753Z,51.81
2023-03-30T22:13:48.324Z,51.97
2023-03-30T22:16:18.655Z,52.01
2023-03-30T22:18:47.346Z,52.02
2023-03-30T22:21:17.580Z,52.19
2023-03-30T22:23:45.171Z,52.18
2023-03-30T22:26:13.764Z,51.82
2023-03-30T22:28:41.109Z,51.88
2023-03-30T22:31:10.223Z,51.56
2023-03-30T22:33:37.486Z,51.44
2023-03-30T22:36:14.941Z,51.37
2023-03-30T22:38:42.414Z,51.32
2023-03-30T22:41:10.206Z,51.17
2023-03-30T22:43:37.729Z,50.94
2023-03-30T22:46:06.489Z,50.88
2023-03-30T22:48:35.493Z,50.93
2023-03-30T22:51:04.802Z,50.99
2023-03-30T22:53:32.432Z,51.19
2023-03-30T22:55:59.864Z,51.27
2023-03-30T22:58:27.844Z,51.13
2023-03-30T23:01:00.925Z,51.42
2023-03-30T23:03:28.068Z,51.47
2023-03-30T23:05:55.802Z,51.41
2023-03-30T23:08:24.315Z,51.72
2023-03-30T23:10:53.777Z,51.66
2023-03-30T23:13:20.734Z,51.46
2023-03-30T23:15:48.551Z,51.26
2023-03-30T23:18:15.903Z,51.31
2023-03-30T23:20:46.401Z,51.17
2023-03-30T23:23:14.062Z,51.34
2023-03-30T23:25:51.376Z,51.49
2023-03-30T23:28:19.030Z,51.21
2023-03-30T23:30:46.387Z,51.01
2023-03-30T23:33:13.930Z,51.30
2023-03-30T23:35:49.038Z,51.25
2023-03-30T23:38:16.954Z,51.18
2023-03-30T23:40:45.347Z,51.33
2023-03-30T23:43:12.256Z,51.52
2023-03-30T23:45:39.291Z,51.53
2023-03-30T23:48:07.177Z,51.95
2023-03-30T23:50:36.031Z,51.98
2023-03-30T23:53:02.934Z,52.29
2023-03-30T23:55:29.851Z,52.82
2023-03-30T23:57:58.065Z,53.59
